Tilton, NH (03276)

5:38 PM EDT on August 02, 2015 (GMT -0400)
Silver Lake at Tilton New Hampshire | | Change Station
CLOSE
Current Station
Personal Weather Station
Location: Tilton,, NH
Elevation: 527 ft
Nearby Weather Stations

Elev 527 ft 43.47 °N, 71.54 °W | Updated 3 seconds ago

Mostly Cloudy
Mostly Cloudy
74.7 °F
Feels Like 77 °F
N
0.0
Wind Variable Wind from SE
Gusts 0.2 mph

Today
High -- | Low -- °F
--% Chance of Precip.
Yesterday
High -- | Low -- °F
Precip. -- in
5:36 AM 8:07 PM
Waning Gibbous, 91% visible
Pressure 29.83 in
Visibility 10.0 miles
Clouds Mostly Cloudy 11000 ft
Heat Index 77 °F
Dew Point 42 °F
Humidity 31%
Rainfall 0.00 in
Snow Depth Not available.
UV 1 out of 12
Pollen 6.30 out of 12
Air Quality Not available.
Flu Activity Not available.
METAR KLCI 022135Z AUTO 19006KT 10SM BKN110 27/14 A2983 RMK AO1

More Conditions Fewer Conditions

Pressure 29.83 in
Visibility 10.0 miles
Clouds Mostly Cloudy 11000 ft
Heat Index 77 °F
Dew Point 42 °F
Humidity 31%
Rainfall 0.00 in
Snow Depth Not available.
UV 1 out of 12
Pollen 6.30 out of 12
Air Quality Not available.
Flu Activity Not available.
METAR KLCI 022135Z AUTO 19006KT 10SM BKN110 27/14 A2983 RMK AO1

More Conditions Fewer Conditions

10-Day Weather Forecast

×

Almanac

Astronomy

Aug. 02, 2015 Rise Set
Actual Time
Civil Twilight
Nautical Twilight
Astronomical Twilight
Moon
Length of Visible Light
Length of Day
Tomorrow will be .
, % of the Moon is Illuminated

Today's Extremes

State Highs State Lows

Community

WunderPhotos

Upload Photos

1,843,366 photos uploaded!

WunderBlogs® & News

Nearby

Air Quality

  Air Quality AQ Index Pollutant
Not available.

Snow Depth

Station Depth Elevation

Earthquake Activity

City Distance Mag. Time & Date
Minimum magnitude displayed is 2.5.

Coastal Water Temperatures

Place Temperature

Stations

Nearby Weather Stations

Station Location Temp. Windchill Dew Point Humidity Wind Precip. Elev Updated Type